Arco, Minnesota
Current Conditions -  °F | °C
As of 11:35 PM on Friday 19 Dec 2014 (Local Time) from KMML Reporting Station
Overcast Overcast  
Wind Chill: 19°   Ceiling: 1000
Heat Index: 30°   Visibility: 4mi
Dew Point: 27°   Wind: 15mph
Humidity: 86%   Direction: 200°SSW
Pressure: 30.08"   Gusts: NA
Location:  44.38°N, 96.18°W
Report Text: KMML 200535Z AUTO 20013KT 4SM OVC010 M01/M03 A3008 RMK AO1
Loading
Personal Weather Stations






























Interactive Weather Map New forecast layout! Learn more

10-Day Weather Forecast

Advertisements
Track Severe Weather on mobile